Riverside, Alabama
Current Conditions -  °F | °C
As of 3:15 PM on Thursday 20 Nov 2014 (Local Time) from KASN Reporting Station
Clear Clear  
Wind Chill: 63°   Ceiling: Unl
Heat Index: 63°   Visibility: 10mi
Dew Point: 33°   Wind: 9mph
Humidity: 33%   Direction: 270°W
Pressure: 30.19"   Gusts: NA
Location:  33.61°N, 86.21°W
Report Text: KASN 202115Z AUTO 27008KT 10SM CLR 17/01 A3019 RMK AO2 T01700005
Loading
Personal Weather Stations






























Interactive Weather Map New forecast layout! Learn more

10-Day Weather Forecast

Advertisements
Track Severe Weather on mobile